createdAt,value
2019-01-31T00:03:46.937Z,3.89
2019-01-31T00:05:46.909Z,3.90
2019-01-31T00:09:46.901Z,3.91
2019-01-31T00:11:46.920Z,3.90
2019-01-31T00:15:46.912Z,3.90
2019-01-31T00:17:46.922Z,3.91
2019-01-31T00:21:46.944Z,3.91
2019-01-31T00:23:46.945Z,3.89
2019-01-31T00:27:46.947Z,3.91
2019-01-31T00:29:46.924Z,3.91
2019-01-31T00:33:46.948Z,3.90
2019-01-31T00:35:51.594Z,3.89
2019-01-31T00:39:46.936Z,3.88
2019-01-31T00:41:46.958Z,3.91
2019-01-31T00:45:46.953Z,3.88
2019-01-31T00:47:46.967Z,3.92
2019-01-31T00:51:46.951Z,3.91
2019-01-31T00:53:46.958Z,3.90
2019-01-31T00:57:46.971Z,3.91
2019-01-31T00:59:46.966Z,3.89
2019-01-31T01:03:46.959Z,3.89
2019-01-31T01:05:51.986Z,3.89
2019-01-31T01:09:46.967Z,3.87
2019-01-31T01:11:46.971Z,3.88
2019-01-31T01:15:46.966Z,3.88
2019-01-31T01:17:46.997Z,3.89
2019-01-31T01:21:51.995Z,3.88
2019-01-31T01:23:47.004Z,3.87
2019-01-31T01:27:52.170Z,3.87
2019-01-31T01:29:47.002Z,3.87
2019-01-31T01:33:47.097Z,3.86
2019-01-31T01:35:47.006Z,3.87
2019-01-31T01:39:46.991Z,3.87
2019-01-31T01:41:51.699Z,3.88
2019-01-31T01:47:47.008Z,3.88
2019-01-31T01:49:47.017Z,3.85
2019-01-31T01:53:47.001Z,3.87
2019-01-31T01:55:46.997Z,3.88
2019-01-31T01:59:47.028Z,3.87
2019-01-31T02:01:47.030Z,3.86
2019-01-31T02:05:47.013Z,3.87
2019-01-31T02:07:47.022Z,3.87
2019-01-31T02:11:49.132Z,3.84
2019-01-31T02:13:47.005Z,3.85
2019-01-31T02:17:47.011Z,3.86
2019-01-31T02:19:47.010Z,3.85
2019-01-31T02:23:51.550Z,3.87
2019-01-31T02:25:47.007Z,3.86
2019-01-31T02:29:47.002Z,3.85
2019-01-31T02:31:47.031Z,3.86
2019-01-31T02:35:47.035Z,3.84
2019-01-31T02:37:51.837Z,3.83
2019-01-31T02:41:55.630Z,3.83
2019-01-31T02:43:47.038Z,3.83
2019-01-31T02:47:47.054Z,3.84
2019-01-31T02:49:47.048Z,3.83
2019-01-31T02:53:52.031Z,3.83
2019-01-31T02:55:47.073Z,3.83
2019-01-31T02:59:47.054Z,3.81
2019-01-31T03:01:47.055Z,3.81
2019-01-31T03:05:47.058Z,3.81
2019-01-31T03:07:52.043Z,3.82
2019-01-31T03:11:47.068Z,3.81
2019-01-31T03:13:47.063Z,3.82
2019-01-31T03:17:47.044Z,3.83
2019-01-31T03:19:47.073Z,3.82
2019-01-31T03:23:47.439Z,3.82
2019-01-31T03:25:51.723Z,3.81
2019-01-31T03:29:47.073Z,3.81
2019-01-31T03:31:47.088Z,3.82
2019-01-31T03:35:47.080Z,3.81
2019-01-31T03:37:47.072Z,3.83
2019-01-31T03:41:47.079Z,3.79
2019-01-31T03:43:47.067Z,3.83
2019-01-31T03:47:47.065Z,3.80
2019-01-31T03:49:47.084Z,3.81
2019-01-31T03:53:52.064Z,3.81
2019-01-31T03:55:52.289Z,3.80
2019-01-31T03:59:47.085Z,3.78
2019-01-31T04:01:52.180Z,3.80
2019-01-31T04:05:47.090Z,3.81
2019-01-31T04:07:47.090Z,3.80
2019-01-31T04:11:47.124Z,3.78
2019-01-31T04:13:47.128Z,3.81
2019-01-31T04:17:47.088Z,3.79
2019-01-31T04:19:47.100Z,3.79
2019-01-31T04:25:47.106Z,3.79
2019-01-31T04:27:47.127Z,3.79
2019-01-31T04:31:47.096Z,3.80
2019-01-31T04:33:47.122Z,3.78
2019-01-31T04:37:47.109Z,3.79
2019-01-31T04:39:47.393Z,3.79
2019-01-31T04:43:47.144Z,3.79
2019-01-31T04:45:47.149Z,3.80
2019-01-31T04:49:47.139Z,3.79
2019-01-31T04:51:47.114Z,3.79
2019-01-31T04:55:47.122Z,3.78
2019-01-31T04:57:47.122Z,3.78
2019-01-31T05:01:47.144Z,3.78
2019-01-31T05:03:52.150Z,3.76
2019-01-31T05:07:47.156Z,3.77
2019-01-31T05:09:50.959Z,3.77
2019-01-31T05:13:47.139Z,3.78
2019-01-31T05:15:47.160Z,3.76
2019-01-31T05:19:47.150Z,3.75
2019-01-31T05:21:47.170Z,3.77
2019-01-31T05:25:47.149Z,3.77
2019-01-31T05:27:47.185Z,3.77
2019-01-31T05:31:49.466Z,3.77
2019-01-31T05:33:47.164Z,3.76
2019-01-31T05:37:49.471Z,3.77
2019-01-31T05:39:51.339Z,3.76
2019-01-31T05:43:49.413Z,3.75
2019-01-31T05:45:47.163Z,3.75
2019-01-31T05:49:47.194Z,3.76
2019-01-31T05:51:47.153Z,3.76
2019-01-31T05:55:47.173Z,3.74
2019-01-31T05:57:47.181Z,3.75
2019-01-31T06:01:47.195Z,3.74
2019-01-31T06:03:52.179Z,3.74
2019-01-31T06:07:47.157Z,3.77
2019-01-31T06:09:47.204Z,3.75
2019-01-31T06:13:47.565Z,3.72
2019-01-31T06:15:47.230Z,3.73
2019-01-31T06:19:47.182Z,3.74
2019-01-31T06:21:47.213Z,3.76
2019-01-31T06:25:52.206Z,3.74
2019-01-31T06:27:47.212Z,3.71
2019-01-31T06:31:47.232Z,3.75
2019-01-31T06:33:47.199Z,3.74
2019-01-31T06:37:47.197Z,3.74
2019-01-31T06:39:47.210Z,3.72
2019-01-31T06:43:47.234Z,3.74
2019-01-31T06:45:47.205Z,3.72
2019-01-31T06:49:47.232Z,3.72
2019-01-31T06:51:47.217Z,3.72
2019-01-31T06:55:47.229Z,3.70
2019-01-31T06:57:47.241Z,3.70
2019-01-31T07:01:47.260Z,3.71
2019-01-31T07:03:52.247Z,3.74
2019-01-31T07:07:47.229Z,3.70
2019-01-31T07:09:47.217Z,3.74
2019-01-31T07:13:47.240Z,3.71
2019-01-31T07:15:47.256Z,3.70
2019-01-31T07:19:47.237Z,3.70
2019-01-31T07:21:47.296Z,3.71
2019-01-31T07:25:47.224Z,3.71
2019-01-31T07:27:47.267Z,3.71
2019-01-31T07:31:47.246Z,3.70
2019-01-31T07:33:47.276Z,3.68
2019-01-31T07:37:47.277Z,3.70
2019-01-31T07:39:47.264Z,3.69
2019-01-31T07:43:47.275Z,3.70
2019-01-31T07:45:51.790Z,3.69
2019-01-31T07:49:48.136Z,3.69
2019-01-31T07:51:47.296Z,3.71
2019-01-31T07:55:47.286Z,3.66
2019-01-31T07:57:47.295Z,3.67
2019-01-31T08:01:47.262Z,3.69
2019-01-31T08:03:47.281Z,3.68
2019-01-31T08:07:52.374Z,3.68
2019-01-31T08:09:52.300Z,3.67
2019-01-31T08:13:47.274Z,3.67
2019-01-31T08:15:47.271Z,3.67
2019-01-31T08:19:47.292Z,3.66
2019-01-31T08:21:51.916Z,3.67
2019-01-31T08:25:49.170Z,3.66
2019-01-31T08:27:47.312Z,3.66
2019-01-31T08:33:47.309Z,3.67
2019-01-31T08:35:47.340Z,3.67
2019-01-31T08:39:47.308Z,3.66
2019-01-31T08:41:47.302Z,3.65
2019-01-31T08:45:47.298Z,3.67
2019-01-31T08:47:52.508Z,3.66
2019-01-31T08:51:47.310Z,3.67
2019-01-31T08:53:47.336Z,3.66
2019-01-31T08:57:47.700Z,3.69
2019-01-31T08:59:47.346Z,3.67
2019-01-31T09:03:47.333Z,3.72
2019-01-31T09:05:47.325Z,3.73
2019-01-31T09:09:47.302Z,3.73
2019-01-31T09:11:47.360Z,3.73
2019-01-31T09:15:47.325Z,3.74
2019-01-31T09:17:47.363Z,3.79
2019-01-31T09:21:47.374Z,3.79
2019-01-31T09:23:47.319Z,3.78
2019-01-31T09:27:47.390Z,3.82
2019-01-31T09:29:47.358Z,3.84
2019-01-31T09:33:47.354Z,3.83
2019-01-31T09:35:47.394Z,3.86
2019-01-31T09:39:47.398Z,3.88
2019-01-31T09:41:47.387Z,3.91
2019-01-31T09:45:47.392Z,3.90
2019-01-31T09:47:47.405Z,3.91
2019-01-31T09:51:47.456Z,3.92
2019-01-31T09:53:47.394Z,3.95
2019-01-31T09:57:47.408Z,3.95
2019-01-31T09:59:52.054Z,3.94
2019-01-31T10:03:47.524Z,3.99
2019-01-31T10:05:51.936Z,3.98
2019-01-31T10:09:47.400Z,4.00
2019-01-31T10:11:56.410Z,3.99
2019-01-31T10:15:47.396Z,4.01
2019-01-31T10:17:47.416Z,4.01
2019-01-31T10:21:47.445Z,4.01
2019-01-31T10:23:47.571Z,4.02
2019-01-31T10:27:47.440Z,4.02
2019-01-31T10:29:47.431Z,4.03
2019-01-31T10:33:52.115Z,4.02
2019-01-31T10:35:47.448Z,4.02
2019-01-31T10:39:47.409Z,4.04
2019-01-31T10:41:51.882Z,4.04
2019-01-31T10:47:52.287Z,4.06
2019-01-31T10:49:47.443Z,4.06
2019-01-31T10:53:47.489Z,4.04
2019-01-31T10:55:56.793Z,4.05
2019-01-31T10:59:52.501Z,4.06
2019-01-31T11:01:47.475Z,4.06
2019-01-31T11:05:47.499Z,4.07
2019-01-31T11:07:47.466Z,4.05
2019-01-31T11:11:52.561Z,4.07
2019-01-31T11:13:47.495Z,4.06
2019-01-31T11:17:47.491Z,4.09
2019-01-31T11:19:47.504Z,4.09
2019-01-31T11:23:56.356Z,4.10
2019-01-31T11:25:47.501Z,4.12
2019-01-31T11:29:47.482Z,4.09
2019-01-31T11:31:47.526Z,4.08
2019-01-31T11:35:47.515Z,4.12
2019-01-31T11:37:47.499Z,4.10
2019-01-31T11:41:52.574Z,4.09
2019-01-31T11:43:52.787Z,4.11
2019-01-31T11:47:47.526Z,4.12
2019-01-31T11:49:49.930Z,4.10
2019-01-31T11:53:47.524Z,4.12
2019-01-31T11:55:47.549Z,4.14
2019-01-31T11:59:47.548Z,4.11
2019-01-31T12:01:47.564Z,4.12
2019-01-31T12:05:47.541Z,4.13
2019-01-31T12:07:52.292Z,4.10
2019-01-31T12:11:47.599Z,4.09
2019-01-31T12:13:47.567Z,4.10
2019-01-31T12:17:47.566Z,4.11
2019-01-31T12:19:47.566Z,4.10
2019-01-31T12:23:47.581Z,4.12
2019-01-31T12:25:47.629Z,4.12
2019-01-31T12:29:47.610Z,4.10
2019-01-31T12:31:47.646Z,4.09
2019-01-31T12:35:52.150Z,4.09
2019-01-31T12:37:47.600Z,4.12
2019-01-31T12:41:47.621Z,4.06
2019-01-31T12:43:47.586Z,4.06
2019-01-31T12:47:47.579Z,4.12
2019-01-31T12:49:47.591Z,4.10
2019-01-31T12:53:47.641Z,4.13
2019-01-31T12:55:47.644Z,4.10
2019-01-31T12:59:52.116Z,4.08
2019-01-31T13:01:47.619Z,4.09
2019-01-31T13:05:47.602Z,4.06
2019-01-31T13:07:47.634Z,4.10
2019-01-31T13:11:47.625Z,4.06
2019-01-31T13:13:52.071Z,4.10
2019-01-31T13:17:54.103Z,4.05
2019-01-31T13:19:47.641Z,4.04
2019-01-31T13:23:47.642Z,4.04
2019-01-31T13:25:47.652Z,4.04
2019-01-31T13:29:47.657Z,4.03
2019-01-31T13:31:47.634Z,4.03
2019-01-31T13:35:47.676Z,4.04
2019-01-31T13:37:47.646Z,4.05
2019-01-31T13:41:47.669Z,4.03
2019-01-31T13:43:57.627Z,4.04
2019-01-31T13:47:47.682Z,4.01
2019-01-31T13:49:47.726Z,4.02
2019-01-31T13:53:47.664Z,4.01
2019-01-31T13:55:47.708Z,4.02
2019-01-31T13:59:47.696Z,4.01
2019-01-31T14:01:52.073Z,4.00
2019-01-31T14:05:47.711Z,4.00
2019-01-31T14:07:52.331Z,4.03
2019-01-31T14:11:47.857Z,4.01
2019-01-31T14:13:48.574Z,4.01
2019-01-31T14:17:48.000Z,4.01
2019-01-31T14:19:50.030Z,4.02
2019-01-31T14:23:51.355Z,4.01
2019-01-31T14:25:47.721Z,4.01
2019-01-31T14:29:53.497Z,4.01
2019-01-31T14:31:50.109Z,4.01
2019-01-31T14:35:47.751Z,4.00
2019-01-31T14:37:47.872Z,4.01
2019-01-31T14:41:47.754Z,4.02
2019-01-31T14:43:47.729Z,4.00
2019-01-31T14:47:47.727Z,4.00
2019-01-31T14:49:47.745Z,4.01
2019-01-31T14:53:47.730Z,4.00
2019-01-31T14:55:50.176Z,4.01
2019-01-31T14:59:52.122Z,4.00
2019-01-31T15:01:47.862Z,4.00
2019-01-31T15:05:52.364Z,3.99
2019-01-31T15:07:47.792Z,3.97
2019-01-31T15:11:47.772Z,3.99
2019-01-31T15:13:47.764Z,3.99
2019-01-31T15:17:47.780Z,3.99
2019-01-31T15:19:47.794Z,3.99
2019-01-31T15:23:48.644Z,3.99
2019-01-31T15:25:47.797Z,3.98
2019-01-31T15:29:47.811Z,3.96
2019-01-31T15:31:52.398Z,3.97
2019-01-31T15:35:52.333Z,3.98
2019-01-31T15:37:47.827Z,3.97
2019-01-31T15:41:47.802Z,3.95
2019-01-31T15:43:47.810Z,3.95
2019-01-31T15:49:47.804Z,3.95
2019-01-31T15:51:51.534Z,3.94
2019-01-31T15:55:47.807Z,3.93
2019-01-31T15:57:52.807Z,3.94
2019-01-31T16:01:47.813Z,3.95
2019-01-31T16:03:47.851Z,3.92
2019-01-31T16:07:47.828Z,3.93
2019-01-31T16:09:47.980Z,3.92
2019-01-31T16:13:47.862Z,3.92
2019-01-31T16:15:47.892Z,3.91
2019-01-31T16:19:47.963Z,3.89
2019-01-31T16:21:47.856Z,3.89
2019-01-31T16:25:48.173Z,3.88
2019-01-31T16:29:47.821Z,3.87
2019-01-31T16:31:47.849Z,3.87
2019-01-31T16:35:47.821Z,3.88
2019-01-31T16:37:47.836Z,3.86
2019-01-31T16:41:47.854Z,3.85
2019-01-31T16:43:52.655Z,3.85
2019-01-31T16:47:52.494Z,3.83
2019-01-31T16:49:49.040Z,3.83
2019-01-31T16:53:47.876Z,3.82
2019-01-31T16:55:47.860Z,3.83
2019-01-31T16:59:47.872Z,3.83
2019-01-31T17:01:52.899Z,3.81
2019-01-31T17:05:47.898Z,3.79
2019-01-31T17:07:47.851Z,3.82
2019-01-31T17:11:47.865Z,3.80
2019-01-31T17:13:47.896Z,3.81
2019-01-31T17:17:47.910Z,3.79
2019-01-31T17:19:47.906Z,3.79
2019-01-31T17:23:47.886Z,3.77
2019-01-31T17:25:47.879Z,3.79
2019-01-31T17:29:47.895Z,3.78
2019-01-31T17:31:48.816Z,3.79
2019-01-31T17:35:47.916Z,3.76
2019-01-31T17:37:52.898Z,3.75
2019-01-31T17:41:47.914Z,3.75
2019-01-31T17:44:03.072Z,3.73
2019-01-31T17:47:47.902Z,3.74
2019-01-31T17:49:48.621Z,3.75
2019-01-31T17:53:53.140Z,3.73
2019-01-31T17:55:47.949Z,3.74
2019-01-31T17:59:48.955Z,3.73
2019-01-31T18:01:47.932Z,3.70
2019-01-31T18:05:47.901Z,3.68
2019-01-31T18:07:49.045Z,3.70
2019-01-31T18:11:47.940Z,3.72
2019-01-31T18:13:47.937Z,3.67
2019-01-31T18:17:47.951Z,3.69
2019-01-31T18:19:57.170Z,3.67
2019-01-31T18:23:47.940Z,3.68
2019-01-31T18:25:47.936Z,3.67
2019-01-31T18:29:51.710Z,3.68
2019-01-31T18:31:47.928Z,3.65
2019-01-31T18:35:47.966Z,3.66
2019-01-31T18:37:47.958Z,3.64
2019-01-31T18:41:47.950Z,3.61
2019-01-31T18:43:55.943Z,3.62
2019-01-31T18:47:47.959Z,3.60
2019-01-31T18:49:48.090Z,3.59
2019-01-31T18:53:48.008Z,3.60
2019-01-31T18:55:59.426Z,3.57
2019-01-31T18:59:48.020Z,3.57
2019-01-31T19:01:48.018Z,3.57
2019-01-31T19:05:48.017Z,3.57
2019-01-31T19:07:53.010Z,3.55
2019-01-31T19:11:52.574Z,3.54
2019-01-31T19:13:48.046Z,3.56
2019-01-31T19:17:48.019Z,3.52
2019-01-31T19:19:53.003Z,3.53
2019-01-31T19:23:48.021Z,3.48
2019-01-31T19:25:48.029Z,3.49
2019-01-31T19:29:48.058Z,3.48
2019-01-31T19:31:48.044Z,3.48
2019-01-31T19:35:48.031Z,3.49
2019-01-31T19:37:48.069Z,3.50
2019-01-31T19:41:48.052Z,3.48
2019-01-31T19:43:48.035Z,3.49
2019-01-31T19:47:48.059Z,3.48
2019-01-31T19:49:48.048Z,3.47
2019-01-31T19:53:48.503Z,3.46
2019-01-31T19:55:48.841Z,3.48
2019-01-31T19:59:53.094Z,3.47
2019-01-31T20:01:50.556Z,3.45
2019-01-31T20:05:48.043Z,3.46
2019-01-31T20:07:48.066Z,3.45
2019-01-31T20:11:48.055Z,3.45
2019-01-31T20:13:48.063Z,3.46
2019-01-31T20:17:48.100Z,3.43
2019-01-31T20:19:48.089Z,3.45
2019-01-31T20:23:51.781Z,3.42
2019-01-31T20:25:53.340Z,3.41
2019-01-31T20:29:49.112Z,3.41
2019-01-31T20:31:48.076Z,3.40
2019-01-31T20:35:48.106Z,3.41
2019-01-31T20:37:48.096Z,3.42
2019-01-31T20:41:54.342Z,3.40
2019-01-31T20:43:48.113Z,3.38
2019-01-31T20:47:48.134Z,3.41
2019-01-31T20:49:48.111Z,3.41
2019-01-31T20:53:48.096Z,3.38
2019-01-31T20:55:48.104Z,3.37
2019-01-31T20:59:48.103Z,3.40
2019-01-31T21:01:54.065Z,3.37
2019-01-31T21:05:48.136Z,3.41
2019-01-31T21:07:48.113Z,3.39
2019-01-31T21:11:48.122Z,3.36
2019-01-31T21:13:48.176Z,3.35
2019-01-31T21:17:48.149Z,3.37
2019-01-31T21:19:48.986Z,3.35
2019-01-31T21:23:53.127Z,3.21
2019-01-31T21:25:52.804Z,3.30
2019-01-31T21:29:48.169Z,3.30
2019-01-31T21:31:48.172Z,3.32
2019-01-31T21:35:57.441Z,3.35
2019-01-31T21:37:48.169Z,3.35
2019-01-31T21:41:51.815Z,3.33
2019-01-31T21:43:48.171Z,3.32
2019-01-31T21:47:48.155Z,3.31
2019-01-31T21:49:48.176Z,3.32
2019-01-31T21:53:48.194Z,3.32
2019-01-31T21:55:48.165Z,3.29
2019-01-31T21:59:48.168Z,3.33
2019-01-31T22:01:48.206Z,3.28
2019-01-31T22:05:57.110Z,3.27
2019-01-31T22:07:48.229Z,3.30
2019-01-31T22:11:48.205Z,3.27
2019-01-31T22:13:48.230Z,3.27
2019-01-31T22:17:53.234Z,3.28
2019-01-31T22:19:52.674Z,3.27
2019-01-31T22:23:48.337Z,3.26
2019-01-31T22:25:48.211Z,3.26
2019-01-31T22:29:48.187Z,3.23
2019-01-31T22:31:48.226Z,3.27
2019-01-31T22:35:54.141Z,3.23
2019-01-31T22:37:53.235Z,3.23
2019-01-31T22:41:48.213Z,3.26
2019-01-31T22:43:48.253Z,3.23
2019-01-31T22:47:48.219Z,3.23
2019-01-31T22:49:48.228Z,3.22
2019-01-31T22:53:48.233Z,3.21
2019-01-31T22:55:53.406Z,3.21
2019-01-31T22:59:48.222Z,3.21
2019-01-31T23:01:48.256Z,3.22
2019-01-31T23:05:48.244Z,3.19
2019-01-31T23:07:48.256Z,3.20
2019-01-31T23:11:50.050Z,3.22
2019-01-31T23:13:52.634Z,3.18
2019-01-31T23:17:57.428Z,3.18
2019-01-31T23:19:52.753Z,3.16
2019-01-31T23:23:48.266Z,3.14
2019-01-31T23:25:48.271Z,3.17
2019-01-31T23:29:48.239Z,3.14
2019-01-31T23:31:48.264Z,3.15
2019-01-31T23:35:48.288Z,3.15
2019-01-31T23:37:49.182Z,3.13
2019-01-31T23:41:48.241Z,3.16
2019-01-31T23:43:48.278Z,3.13
2019-01-31T23:47:49.201Z,3.11
2019-01-31T23:49:48.293Z,3.12
2019-01-31T23:53:48.280Z,3.12
2019-01-31T23:55:48.288Z,3.12
2019-01-31T23:59:57.204Z,3.12
